sensor_id;sensor_type;location;lat;lon;timestamp;P1;durP1;ratioP1;P2;durP2;ratioP2
84780;SDS011;75011;50.086;19.886;2024-02-28T00:00:15;35.67;;;21.00;;
84780;SDS011;75011;50.086;19.886;2024-02-28T00:03:15;36.80;;;20.20;;
84780;SDS011;75011;50.086;19.886;2024-02-28T00:06:16;32.72;;;18.75;;
84780;SDS011;75011;50.086;19.886;2024-02-28T00:09:18;37.30;;;20.60;;
84780;SDS011;75011;50.086;19.886;2024-02-28T00:12:18;39.53;;;21.23;;
84780;SDS011;75011;50.086;19.886;2024-02-28T00:15:19;42.20;;;22.63;;
84780;SDS011;75011;50.086;19.886;2024-02-28T00:18:19;42.80;;;22.23;;
84780;SDS011;75011;50.086;19.886;2024-02-28T00:21:20;37.42;;;22.42;;
84780;SDS011;75011;50.086;19.886;2024-02-28T00:24:22;51.50;;;25.00;;
84780;SDS011;75011;50.086;19.886;2024-02-28T00:27:22;45.60;;;24.52;;
84780;SDS011;75011;50.086;19.886;2024-02-28T00:30:23;45.67;;;23.60;;
84780;SDS011;75011;50.086;19.886;2024-02-28T00:33:23;41.45;;;23.10;;
84780;SDS011;75011;50.086;19.886;2024-02-28T00:36:24;48.97;;;22.90;;
84780;SDS011;75011;50.086;19.886;2024-02-28T00:39:25;41.38;;;22.17;;
84780;SDS011;75011;50.086;19.886;2024-02-28T00:42:26;39.38;;;21.33;;
84780;SDS011;75011;50.086;19.886;2024-02-28T00:45:26;40.17;;;21.33;;
84780;SDS011;75011;50.086;19.886;2024-02-28T00:48:27;38.80;;;21.02;;
84780;SDS011;75011;50.086;19.886;2024-02-28T00:51:27;41.78;;;22.85;;
84780;SDS011;75011;50.086;19.886;2024-02-28T00:54:29;44.65;;;22.75;;
84780;SDS011;75011;50.086;19.886;2024-02-28T00:57:31;38.85;;;21.40;;
84780;SDS011;75011;50.086;19.886;2024-02-28T01:00:31;42.00;;;23.00;;
84780;SDS011;75011;50.086;19.886;2024-02-28T01:03:32;42.53;;;24.25;;
84780;SDS011;75011;50.086;19.886;2024-02-28T01:06:32;44.50;;;24.83;;
84780;SDS011;75011;50.086;19.886;2024-02-28T01:09:34;42.28;;;23.42;;
84780;SDS011;75011;50.086;19.886;2024-02-28T01:12:35;40.85;;;22.88;;
84780;SDS011;75011;50.086;19.886;2024-02-28T01:15:35;45.58;;;23.75;;
84780;SDS011;75011;50.086;19.886;2024-02-28T01:18:36;45.88;;;25.23;;
84780;SDS011;75011;50.086;19.886;2024-02-28T01:21:36;44.63;;;24.55;;
84780;SDS011;75011;50.086;19.886;2024-02-28T01:24:40;46.03;;;24.75;;
84780;SDS011;75011;50.086;19.886;2024-02-28T01:27:40;44.88;;;25.35;;
84780;SDS011;75011;50.086;19.886;2024-02-28T01:30:41;47.90;;;25.77;;
84780;SDS011;75011;50.086;19.886;2024-02-28T01:33:41;48.13;;;26.38;;
84780;SDS011;75011;50.086;19.886;2024-02-28T01:36:42;51.38;;;26.13;;
84780;SDS011;75011;50.086;19.886;2024-02-28T01:39:43;48.17;;;26.05;;
84780;SDS011;75011;50.086;19.886;2024-02-28T01:42:44;56.38;;;26.63;;
84780;SDS011;75011;50.086;19.886;2024-02-28T01:45:44;54.22;;;27.52;;
84780;SDS011;75011;50.086;19.886;2024-02-28T01:48:45;50.13;;;26.58;;
84780;SDS011;75011;50.086;19.886;2024-02-28T01:51:46;47.75;;;25.52;;
84780;SDS011;75011;50.086;19.886;2024-02-28T01:54:48;46.97;;;26.95;;
84780;SDS011;75011;50.086;19.886;2024-02-28T01:57:48;44.70;;;24.70;;
84780;SDS011;75011;50.086;19.886;2024-02-28T02:00:49;49.70;;;26.02;;
84780;SDS011;75011;50.086;19.886;2024-02-28T02:03:50;44.90;;;25.90;;
84780;SDS011;75011;50.086;19.886;2024-02-28T02:06:50;47.90;;;26.58;;
84780;SDS011;75011;50.086;19.886;2024-02-28T02:09:52;44.80;;;25.20;;
84780;SDS011;75011;50.086;19.886;2024-02-28T02:12:53;59.67;;;26.67;;
84780;SDS011;75011;50.086;19.886;2024-02-28T02:15:53;54.92;;;28.35;;
84780;SDS011;75011;50.086;19.886;2024-02-28T02:18:54;48.22;;;26.90;;
84780;SDS011;75011;50.086;19.886;2024-02-28T02:21:56;48.20;;;24.95;;
84780;SDS011;75011;50.086;19.886;2024-02-28T02:25:00;48.88;;;24.52;;
84780;SDS011;75011;50.086;19.886;2024-02-28T02:28:03;44.15;;;25.25;;
84780;SDS011;75011;50.086;19.886;2024-02-28T02:31:03;46.58;;;25.90;;
84780;SDS011;75011;50.086;19.886;2024-02-28T02:34:04;39.92;;;22.98;;
84780;SDS011;75011;50.086;19.886;2024-02-28T02:37:04;41.70;;;24.40;;
84780;SDS011;75011;50.086;19.886;2024-02-28T02:40:07;47.13;;;25.10;;
84780;SDS011;75011;50.086;19.886;2024-02-28T02:43:08;45.10;;;24.98;;
84780;SDS011;75011;50.086;19.886;2024-02-28T02:46:08;43.85;;;23.38;;
84780;SDS011;75011;50.086;19.886;2024-02-28T02:49:09;38.75;;;21.50;;
84780;SDS011;75011;50.086;19.886;2024-02-28T02:52:09;47.28;;;25.90;;
84780;SDS011;75011;50.086;19.886;2024-02-28T02:55:11;47.20;;;24.77;;
84780;SDS011;75011;50.086;19.886;2024-02-28T02:58:12;45.53;;;23.98;;
84780;SDS011;75011;50.086;19.886;2024-02-28T03:01:12;40.95;;;23.63;;
84780;SDS011;75011;50.086;19.886;2024-02-28T03:04:13;42.92;;;24.70;;
84780;SDS011;75011;50.086;19.886;2024-02-28T03:07:13;45.88;;;25.05;;
84780;SDS011;75011;50.086;19.886;2024-02-28T03:10:15;40.22;;;22.13;;
84780;SDS011;75011;50.086;19.886;2024-02-28T03:13:16;38.58;;;22.98;;
84780;SDS011;75011;50.086;19.886;2024-02-28T03:16:16;45.95;;;24.90;;
84780;SDS011;75011;50.086;19.886;2024-02-28T03:19:17;43.80;;;24.75;;
84780;SDS011;75011;50.086;19.886;2024-02-28T03:22:18;45.13;;;24.08;;
84780;SDS011;75011;50.086;19.886;2024-02-28T03:25:20;41.90;;;22.88;;
84780;SDS011;75011;50.086;19.886;2024-02-28T03:28:20;41.83;;;24.33;;
84780;SDS011;75011;50.086;19.886;2024-02-28T03:31:21;43.70;;;24.00;;
84780;SDS011;75011;50.086;19.886;2024-02-28T03:34:21;42.20;;;23.58;;
84780;SDS011;75011;50.086;19.886;2024-02-28T03:37:22;41.92;;;22.48;;
84780;SDS011;75011;50.086;19.886;2024-02-28T03:40:23;40.20;;;22.05;;
84780;SDS011;75011;50.086;19.886;2024-02-28T03:43:24;39.33;;;22.02;;
84780;SDS011;75011;50.086;19.886;2024-02-28T03:46:24;36.38;;;20.85;;
84780;SDS011;75011;50.086;19.886;2024-02-28T03:49:25;39.92;;;22.67;;
84780;SDS011;75011;50.086;19.886;2024-02-28T03:52:25;39.45;;;22.02;;
84780;SDS011;75011;50.086;19.886;2024-02-28T03:55:27;38.88;;;22.02;;
84780;SDS011;75011;50.086;19.886;2024-02-28T03:58:28;43.22;;;21.92;;
84780;SDS011;75011;50.086;19.886;2024-02-28T04:01:28;38.90;;;21.38;;
84780;SDS011;75011;50.086;19.886;2024-02-28T04:04:29;35.80;;;19.67;;
84780;SDS011;75011;50.086;19.886;2024-02-28T04:07:29;41.75;;;20.75;;
84780;SDS011;75011;50.086;19.886;2024-02-28T04:10:31;39.70;;;23.00;;
84780;SDS011;75011;50.086;19.886;2024-02-28T04:13:32;37.85;;;22.77;;
84780;SDS011;75011;50.086;19.886;2024-02-28T04:16:32;43.17;;;22.58;;
84780;SDS011;75011;50.086;19.886;2024-02-28T04:19:33;41.50;;;23.98;;
84780;SDS011;75011;50.086;19.886;2024-02-28T04:22:33;42.25;;;23.63;;
84780;SDS011;75011;50.086;19.886;2024-02-28T04:25:35;39.85;;;22.88;;
84780;SDS011;75011;50.086;19.886;2024-02-28T04:28:36;40.33;;;21.80;;
84780;SDS011;75011;50.086;19.886;2024-02-28T04:31:37;39.22;;;22.27;;
84780;SDS011;75011;50.086;19.886;2024-02-28T04:34:38;37.78;;;21.08;;
84780;SDS011;75011;50.086;19.886;2024-02-28T04:37:38;41.30;;;22.35;;
84780;SDS011;75011;50.086;19.886;2024-02-28T04:40:40;41.92;;;21.85;;
84780;SDS011;75011;50.086;19.886;2024-02-28T04:43:41;42.88;;;22.85;;
84780;SDS011;75011;50.086;19.886;2024-02-28T04:46:41;38.05;;;22.42;;
84780;SDS011;75011;50.086;19.886;2024-02-28T04:49:42;39.28;;;22.52;;
84780;SDS011;75011;50.086;19.886;2024-02-28T04:52:42;41.00;;;22.05;;
84780;SDS011;75011;50.086;19.886;2024-02-28T04:55:44;39.25;;;22.20;;
84780;SDS011;75011;50.086;19.886;2024-02-28T04:58:44;40.05;;;23.27;;
84780;SDS011;75011;50.086;19.886;2024-02-28T05:01:45;33.83;;;19.25;;
84780;SDS011;75011;50.086;19.886;2024-02-28T05:04:45;35.95;;;19.33;;
84780;SDS011;75011;50.086;19.886;2024-02-28T05:07:46;33.47;;;19.67;;
84780;SDS011;75011;50.086;19.886;2024-02-28T05:10:49;36.13;;;19.27;;
84780;SDS011;75011;50.086;19.886;2024-02-28T05:13:50;34.67;;;21.25;;
84780;SDS011;75011;50.086;19.886;2024-02-28T05:16:50;33.63;;;19.88;;
84780;SDS011;75011;50.086;19.886;2024-02-28T05:19:50;34.92;;;19.77;;
84780;SDS011;75011;50.086;19.886;2024-02-28T05:22:51;36.88;;;19.35;;
84780;SDS011;75011;50.086;19.886;2024-02-28T05:25:53;31.40;;;19.83;;
84780;SDS011;75011;50.086;19.886;2024-02-28T05:28:53;35.00;;;20.05;;
84780;SDS011;75011;50.086;19.886;2024-02-28T05:31:54;38.53;;;19.98;;
84780;SDS011;75011;50.086;19.886;2024-02-28T05:34:54;33.72;;;17.90;;
84780;SDS011;75011;50.086;19.886;2024-02-28T05:37:55;32.55;;;19.35;;
84780;SDS011;75011;50.086;19.886;2024-02-28T05:40:57;32.47;;;17.67;;
84780;SDS011;75011;50.086;19.886;2024-02-28T05:43:57;29.70;;;17.38;;
84780;SDS011;75011;50.086;19.886;2024-02-28T05:46:58;34.03;;;18.02;;
84780;SDS011;75011;50.086;19.886;2024-02-28T05:49:58;34.55;;;19.60;;
84780;SDS011;75011;50.086;19.886;2024-02-28T05:52:58;40.05;;;21.92;;
84780;SDS011;75011;50.086;19.886;2024-02-28T05:56:00;35.85;;;21.77;;
84780;SDS011;75011;50.086;19.886;2024-02-28T05:59:01;37.08;;;22.35;;
84780;SDS011;75011;50.086;19.886;2024-02-28T06:02:01;41.80;;;23.98;;
84780;SDS011;75011;50.086;19.886;2024-02-28T06:05:02;41.80;;;23.23;;
84780;SDS011;75011;50.086;19.886;2024-02-28T06:08:03;38.67;;;23.58;;
84780;SDS011;75011;50.086;19.886;2024-02-28T06:11:05;42.20;;;23.42;;
84780;SDS011;75011;50.086;19.886;2024-02-28T06:14:06;38.92;;;23.17;;
84780;SDS011;75011;50.086;19.886;2024-02-28T06:17:06;44.53;;;24.23;;
84780;SDS011;75011;50.086;19.886;2024-02-28T06:20:07;41.88;;;22.60;;
84780;SDS011;75011;50.086;19.886;2024-02-28T06:23:08;43.53;;;23.10;;
84780;SDS011;75011;50.086;19.886;2024-02-28T06:26:10;43.17;;;23.50;;
84780;SDS011;75011;50.086;19.886;2024-02-28T06:29:10;41.33;;;23.45;;
84780;SDS011;75011;50.086;19.886;2024-02-28T06:32:11;42.03;;;23.80;;
84780;SDS011;75011;50.086;19.886;2024-02-28T06:35:11;44.17;;;22.70;;
84780;SDS011;75011;50.086;19.886;2024-02-28T06:38:12;40.00;;;22.40;;
84780;SDS011;75011;50.086;19.886;2024-02-28T06:41:13;40.15;;;22.33;;
84780;SDS011;75011;50.086;19.886;2024-02-28T06:44:14;39.20;;;23.83;;
84780;SDS011;75011;50.086;19.886;2024-02-28T06:47:15;38.65;;;22.05;;
84780;SDS011;75011;50.086;19.886;2024-02-28T06:50:15;35.00;;;20.80;;
84780;SDS011;75011;50.086;19.886;2024-02-28T06:53:16;39.63;;;22.10;;
84780;SDS011;75011;50.086;19.886;2024-02-28T06:56:17;41.47;;;22.85;;
84780;SDS011;75011;50.086;19.886;2024-02-28T06:59:18;38.38;;;22.83;;
84780;SDS011;75011;50.086;19.886;2024-02-28T07:02:18;43.30;;;24.33;;
84780;SDS011;75011;50.086;19.886;2024-02-28T07:05:19;42.80;;;25.42;;
84780;SDS011;75011;50.086;19.886;2024-02-28T07:08:19;39.22;;;23.65;;
84780;SDS011;75011;50.086;19.886;2024-02-28T07:11:21;41.28;;;24.58;;
84780;SDS011;75011;50.086;19.886;2024-02-28T07:14:22;44.60;;;25.98;;
84780;SDS011;75011;50.086;19.886;2024-02-28T07:17:22;41.22;;;23.27;;
84780;SDS011;75011;50.086;19.886;2024-02-28T07:20:23;40.33;;;23.58;;
84780;SDS011;75011;50.086;19.886;2024-02-28T07:23:24;40.10;;;23.45;;
84780;SDS011;75011;50.086;19.886;2024-02-28T07:26:26;37.63;;;23.02;;
84780;SDS011;75011;50.086;19.886;2024-02-28T07:29:26;39.50;;;22.95;;
84780;SDS011;75011;50.086;19.886;2024-02-28T07:32:27;40.60;;;22.60;;
84780;SDS011;75011;50.086;19.886;2024-02-28T07:35:27;35.35;;;21.00;;
84780;SDS011;75011;50.086;19.886;2024-02-28T07:38:28;36.40;;;23.17;;
84780;SDS011;75011;50.086;19.886;2024-02-28T07:41:29;39.53;;;22.85;;
84780;SDS011;75011;50.086;19.886;2024-02-28T07:44:30;36.03;;;21.67;;
84780;SDS011;75011;50.086;19.886;2024-02-28T07:47:30;38.08;;;22.90;;
84780;SDS011;75011;50.086;19.886;2024-02-28T07:50:31;38.78;;;22.90;;
84780;SDS011;75011;50.086;19.886;2024-02-28T07:53:31;35.88;;;21.30;;
84780;SDS011;75011;50.086;19.886;2024-02-28T07:56:33;39.78;;;24.27;;
84780;SDS011;75011;50.086;19.886;2024-02-28T07:59:38;47.03;;;25.00;;
84780;SDS011;75011;50.086;19.886;2024-02-28T08:02:39;39.70;;;24.75;;
84780;SDS011;75011;50.086;19.886;2024-02-28T08:05:39;42.45;;;24.58;;
84780;SDS011;75011;50.086;19.886;2024-02-28T08:08:40;43.10;;;25.27;;
84780;SDS011;75011;50.086;19.886;2024-02-28T08:11:44;45.15;;;24.48;;
84780;SDS011;75011;50.086;19.886;2024-02-28T08:14:45;46.65;;;25.23;;
84780;SDS011;75011;50.086;19.886;2024-02-28T08:17:45;43.15;;;25.20;;
84780;SDS011;75011;50.086;19.886;2024-02-28T08:20:46;43.13;;;26.70;;
84780;SDS011;75011;50.086;19.886;2024-02-28T08:23:46;45.78;;;26.50;;
84780;SDS011;75011;50.086;19.886;2024-02-28T08:26:48;42.13;;;24.70;;
84780;SDS011;75011;50.086;19.886;2024-02-28T08:29:49;48.00;;;26.08;;
84780;SDS011;75011;50.086;19.886;2024-02-28T08:32:49;52.33;;;26.27;;
84780;SDS011;75011;50.086;19.886;2024-02-28T08:35:50;46.42;;;26.77;;
84780;SDS011;75011;50.086;19.886;2024-02-28T08:38:50;48.92;;;28.25;;
84780;SDS011;75011;50.086;19.886;2024-02-28T08:41:52;47.33;;;26.95;;
84780;SDS011;75011;50.086;19.886;2024-02-28T08:44:53;43.63;;;26.70;;
84780;SDS011;75011;50.086;19.886;2024-02-28T08:47:53;42.80;;;26.55;;
84780;SDS011;75011;50.086;19.886;2024-02-28T08:50:54;45.00;;;25.92;;
84780;SDS011;75011;50.086;19.886;2024-02-28T08:53:54;44.83;;;26.33;;
84780;SDS011;75011;50.086;19.886;2024-02-28T08:56:56;45.88;;;25.45;;
84780;SDS011;75011;50.086;19.886;2024-02-28T08:59:57;45.28;;;25.65;;
84780;SDS011;75011;50.086;19.886;2024-02-28T09:02:57;50.55;;;27.35;;
84780;SDS011;75011;50.086;19.886;2024-02-28T09:05:58;46.97;;;25.88;;
84780;SDS011;75011;50.086;19.886;2024-02-28T09:08:59;46.55;;;25.33;;
84780;SDS011;75011;50.086;19.886;2024-02-28T09:12:01;47.40;;;28.00;;
84780;SDS011;75011;50.086;19.886;2024-02-28T09:15:01;47.67;;;27.63;;
84780;SDS011;75011;50.086;19.886;2024-02-28T09:18:02;46.13;;;27.13;;
84780;SDS011;75011;50.086;19.886;2024-02-28T09:21:03;49.28;;;27.23;;
84780;SDS011;75011;50.086;19.886;2024-02-28T09:24:04;47.45;;;26.15;;
84780;SDS011;75011;50.086;19.886;2024-02-28T09:27:06;50.20;;;29.30;;
84780;SDS011;75011;50.086;19.886;2024-02-28T09:30:07;54.88;;;30.73;;
84780;SDS011;75011;50.086;19.886;2024-02-28T09:33:08;55.95;;;28.45;;
84780;SDS011;75011;50.086;19.886;2024-02-28T09:36:08;51.03;;;30.63;;
84780;SDS011;75011;50.086;19.886;2024-02-28T09:39:09;54.30;;;29.13;;
84780;SDS011;75011;50.086;19.886;2024-02-28T09:42:11;52.78;;;29.15;;
84780;SDS011;75011;50.086;19.886;2024-02-28T09:45:11;51.92;;;28.92;;
84780;SDS011;75011;50.086;19.886;2024-02-28T09:48:12;54.95;;;29.70;;
84780;SDS011;75011;50.086;19.886;2024-02-28T09:51:16;50.47;;;27.10;;
84780;SDS011;75011;50.086;19.886;2024-02-28T09:54:18;50.05;;;28.35;;
84780;SDS011;75011;50.086;19.886;2024-02-28T09:57:20;50.17;;;26.77;;
84780;SDS011;75011;50.086;19.886;2024-02-28T10:00:22;54.65;;;28.35;;
84780;SDS011;75011;50.086;19.886;2024-02-28T10:03:24;53.42;;;28.80;;
84780;SDS011;75011;50.086;19.886;2024-02-28T10:06:26;51.50;;;27.02;;
84780;SDS011;75011;50.086;19.886;2024-02-28T10:09:27;45.90;;;26.15;;
84780;SDS011;75011;50.086;19.886;2024-02-28T10:12:29;44.92;;;25.55;;
84780;SDS011;75011;50.086;19.886;2024-02-28T10:15:30;47.63;;;24.70;;
84780;SDS011;75011;50.086;19.886;2024-02-28T10:18:30;38.65;;;22.35;;
84780;SDS011;75011;50.086;19.886;2024-02-28T10:21:31;36.47;;;21.60;;
84780;SDS011;75011;50.086;19.886;2024-02-28T10:24:34;31.70;;;18.40;;
84780;SDS011;75011;50.086;19.886;2024-02-28T10:27:36;31.63;;;17.35;;
84780;SDS011;75011;50.086;19.886;2024-02-28T10:30:38;29.90;;;16.48;;
84780;SDS011;75011;50.086;19.886;2024-02-28T10:33:41;32.13;;;17.75;;
84780;SDS011;75011;50.086;19.886;2024-02-28T10:36:41;31.98;;;18.17;;
84780;SDS011;75011;50.086;19.886;2024-02-28T10:39:44;38.67;;;20.83;;
84780;SDS011;75011;50.086;19.886;2024-02-28T10:42:46;38.00;;;21.30;;
84780;SDS011;75011;50.086;19.886;2024-02-28T10:45:48;32.08;;;18.00;;
84780;SDS011;75011;50.086;19.886;2024-02-28T10:48:49;35.75;;;19.85;;
84780;SDS011;75011;50.086;19.886;2024-02-28T10:51:50;29.38;;;18.42;;
84780;SDS011;75011;50.086;19.886;2024-02-28T10:54:55;29.77;;;17.98;;
84780;SDS011;75011;50.086;19.886;2024-02-28T10:58:00;31.63;;;17.88;;
84780;SDS011;75011;50.086;19.886;2024-02-28T11:01:03;37.65;;;19.33;;
84780;SDS011;75011;50.086;19.886;2024-02-28T11:04:04;35.65;;;18.58;;
84780;SDS011;75011;50.086;19.886;2024-02-28T11:07:05;30.95;;;17.15;;
84780;SDS011;75011;50.086;19.886;2024-02-28T11:10:06;30.67;;;17.65;;
84780;SDS011;75011;50.086;19.886;2024-02-28T11:13:10;31.23;;;18.02;;
84780;SDS011;75011;50.086;19.886;2024-02-28T11:16:30;30.73;;;18.75;;
84780;SDS011;75011;50.086;19.886;2024-02-28T11:19:32;26.63;;;15.82;;
84780;SDS011;75011;50.086;19.886;2024-02-28T11:22:33;26.63;;;15.50;;
84780;SDS011;75011;50.086;19.886;2024-02-28T11:25:34;31.92;;;18.05;;
84780;SDS011;75011;50.086;19.886;2024-02-28T11:28:36;28.30;;;17.17;;
84780;SDS011;75011;50.086;19.886;2024-02-28T11:31:36;23.52;;;13.95;;
84780;SDS011;75011;50.086;19.886;2024-02-28T11:34:37;31.20;;;16.05;;
84780;SDS011;75011;50.086;19.886;2024-02-28T11:37:37;28.75;;;17.40;;
84780;SDS011;75011;50.086;19.886;2024-02-28T11:40:38;31.20;;;18.33;;
84780;SDS011;75011;50.086;19.886;2024-02-28T11:43:40;28.55;;;16.63;;
84780;SDS011;75011;50.086;19.886;2024-02-28T11:46:44;24.00;;;14.93;;
84780;SDS011;75011;50.086;19.886;2024-02-28T11:49:44;24.65;;;13.85;;
84780;SDS011;75011;50.086;19.886;2024-02-28T11:52:45;27.80;;;15.38;;
84780;SDS011;75011;50.086;19.886;2024-02-28T11:55:45;26.60;;;15.93;;
84780;SDS011;75011;50.086;19.886;2024-02-28T11:58:51;24.38;;;13.35;;
84780;SDS011;75011;50.086;19.886;2024-02-28T12:01:52;22.85;;;13.57;;
84780;SDS011;75011;50.086;19.886;2024-02-28T12:04:52;12.32;;;7.78;;
84780;SDS011;75011;50.086;19.886;2024-02-28T12:07:53;16.13;;;6.70;;
84780;SDS011;75011;50.086;19.886;2024-02-28T12:10:53;14.27;;;7.80;;
84780;SDS011;75011;50.086;19.886;2024-02-28T12:13:55;15.65;;;8.27;;
84780;SDS011;75011;50.086;19.886;2024-02-28T12:16:57;14.77;;;9.38;;
84780;SDS011;75011;50.086;19.886;2024-02-28T12:19:58;17.83;;;9.10;;
84780;SDS011;75011;50.086;19.886;2024-02-28T12:22:59;18.02;;;9.43;;
84780;SDS011;75011;50.086;19.886;2024-02-28T12:26:00;21.33;;;10.57;;
84780;SDS011;75011;50.086;19.886;2024-02-28T12:29:01;17.80;;;10.15;;
84780;SDS011;75011;50.086;19.886;2024-02-28T12:32:02;19.83;;;11.52;;
84780;SDS011;75011;50.086;19.886;2024-02-28T12:35:04;19.65;;;9.90;;
84780;SDS011;75011;50.086;19.886;2024-02-28T12:38:05;20.27;;;9.88;;
84780;SDS011;75011;50.086;19.886;2024-02-28T12:41:06;19.15;;;10.40;;
84780;SDS011;75011;50.086;19.886;2024-02-28T12:44:08;18.13;;;11.85;;
84780;SDS011;75011;50.086;19.886;2024-02-28T12:47:08;18.50;;;11.77;;
84780;SDS011;75011;50.086;19.886;2024-02-28T12:50:09;22.10;;;11.48;;
84780;SDS011;75011;50.086;19.886;2024-02-28T12:53:09;21.23;;;11.30;;
84780;SDS011;75011;50.086;19.886;2024-02-28T12:56:11;19.83;;;12.00;;
84780;SDS011;75011;50.086;19.886;2024-02-28T12:59:12;23.65;;;11.75;;
84780;SDS011;75011;50.086;19.886;2024-02-28T13:02:13;23.83;;;14.30;;
84780;SDS011;75011;50.086;19.886;2024-02-28T13:05:15;23.83;;;13.05;;
84780;SDS011;75011;50.086;19.886;2024-02-28T13:08:16;22.95;;;12.15;;
84780;SDS011;75011;50.086;19.886;2024-02-28T13:11:17;22.30;;;13.02;;
84780;SDS011;75011;50.086;19.886;2024-02-28T13:14:20;23.42;;;13.60;;
84780;SDS011;75011;50.086;19.886;2024-02-28T13:17:20;24.77;;;13.73;;
84780;SDS011;75011;50.086;19.886;2024-02-28T13:20:21;21.55;;;12.63;;
84780;SDS011;75011;50.086;19.886;2024-02-28T13:23:21;24.52;;;13.20;;
84780;SDS011;75011;50.086;19.886;2024-02-28T13:26:22;21.65;;;13.27;;
84780;SDS011;75011;50.086;19.886;2024-02-28T13:29:24;25.23;;;12.80;;
84780;SDS011;75011;50.086;19.886;2024-02-28T13:32:24;22.13;;;13.35;;
84780;SDS011;75011;50.086;19.886;2024-02-28T13:35:25;27.20;;;13.02;;
84780;SDS011;75011;50.086;19.886;2024-02-28T13:38:25;24.33;;;13.65;;
84780;SDS011;75011;50.086;19.886;2024-02-28T13:41:26;27.58;;;13.35;;
84780;SDS011;75011;50.086;19.886;2024-02-28T13:44:28;22.52;;;13.60;;
84780;SDS011;75011;50.086;19.886;2024-02-28T13:47:29;22.48;;;13.02;;
84780;SDS011;75011;50.086;19.886;2024-02-28T13:50:29;26.13;;;13.13;;
84780;SDS011;75011;50.086;19.886;2024-02-28T13:53:30;24.35;;;13.45;;
84780;SDS011;75011;50.086;19.886;2024-02-28T13:56:30;22.23;;;12.48;;
84780;SDS011;75011;50.086;19.886;2024-02-28T13:59:32;25.63;;;13.90;;
84780;SDS011;75011;50.086;19.886;2024-02-28T14:02:33;28.42;;;13.82;;
84780;SDS011;75011;50.086;19.886;2024-02-28T14:05:33;26.05;;;12.43;;
84780;SDS011;75011;50.086;19.886;2024-02-28T14:08:34;22.75;;;12.68;;
84780;SDS011;75011;50.086;19.886;2024-02-28T14:11:34;23.75;;;13.23;;
84780;SDS011;75011;50.086;19.886;2024-02-28T14:14:36;25.83;;;12.63;;
84780;SDS011;75011;50.086;19.886;2024-02-28T14:17:37;26.13;;;12.00;;
84780;SDS011;75011;50.086;19.886;2024-02-28T14:20:37;26.55;;;13.30;;
84780;SDS011;75011;50.086;19.886;2024-02-28T14:23:38;24.63;;;12.13;;
84780;SDS011;75011;50.086;19.886;2024-02-28T14:26:38;25.17;;;12.48;;
84780;SDS011;75011;50.086;19.886;2024-02-28T14:29:40;23.83;;;12.23;;
84780;SDS011;75011;50.086;19.886;2024-02-28T14:32:42;25.45;;;13.25;;
84780;SDS011;75011;50.086;19.886;2024-02-28T14:35:43;22.02;;;12.63;;
84780;SDS011;75011;50.086;19.886;2024-02-28T14:38:43;21.75;;;12.77;;
84780;SDS011;75011;50.086;19.886;2024-02-28T14:41:44;25.52;;;14.40;;
84780;SDS011;75011;50.086;19.886;2024-02-28T14:44:46;25.67;;;13.38;;
84780;SDS011;75011;50.086;19.886;2024-02-28T14:47:46;28.90;;;15.25;;
84780;SDS011;75011;50.086;19.886;2024-02-28T14:50:47;30.17;;;15.73;;
84780;SDS011;75011;50.086;19.886;2024-02-28T14:53:47;30.20;;;16.40;;
84780;SDS011;75011;50.086;19.886;2024-02-28T14:56:48;26.58;;;15.88;;
84780;SDS011;75011;50.086;19.886;2024-02-28T14:59:50;29.45;;;17.40;;
84780;SDS011;75011;50.086;19.886;2024-02-28T15:02:50;30.80;;;16.45;;
84780;SDS011;75011;50.086;19.886;2024-02-28T15:05:51;29.40;;;16.80;;
84780;SDS011;75011;50.086;19.886;2024-02-28T15:08:51;32.03;;;17.42;;
84780;SDS011;75011;50.086;19.886;2024-02-28T15:11:52;29.58;;;15.68;;
84780;SDS011;75011;50.086;19.886;2024-02-28T15:14:54;28.02;;;16.35;;
84780;SDS011;75011;50.086;19.886;2024-02-28T15:17:54;29.45;;;15.65;;
84780;SDS011;75011;50.086;19.886;2024-02-28T15:20:55;28.38;;;14.68;;
84780;SDS011;75011;50.086;19.886;2024-02-28T15:23:55;27.85;;;14.23;;
84780;SDS011;75011;50.086;19.886;2024-02-28T15:26:56;30.52;;;16.20;;
84780;SDS011;75011;50.086;19.886;2024-02-28T15:29:57;32.63;;;16.27;;
84780;SDS011;75011;50.086;19.886;2024-02-28T15:32:58;36.35;;;18.85;;
84780;SDS011;75011;50.086;19.886;2024-02-28T15:35:58;35.22;;;17.58;;
84780;SDS011;75011;50.086;19.886;2024-02-28T15:38:59;36.42;;;18.65;;
84780;SDS011;75011;50.086;19.886;2024-02-28T15:41:59;33.72;;;18.17;;
84780;SDS011;75011;50.086;19.886;2024-02-28T15:45:01;39.00;;;21.38;;
84780;SDS011;75011;50.086;19.886;2024-02-28T15:48:02;42.88;;;22.13;;
84780;SDS011;75011;50.086;19.886;2024-02-28T15:51:03;39.97;;;22.00;;
84780;SDS011;75011;50.086;19.886;2024-02-28T15:54:04;45.50;;;22.13;;
84780;SDS011;75011;50.086;19.886;2024-02-28T15:57:05;44.55;;;23.13;;
84780;SDS011;75011;50.086;19.886;2024-02-28T16:00:07;45.55;;;24.05;;
84780;SDS011;75011;50.086;19.886;2024-02-28T16:03:08;48.60;;;27.42;;
84780;SDS011;75011;50.086;19.886;2024-02-28T16:06:09;49.28;;;27.23;;
84780;SDS011;75011;50.086;19.886;2024-02-28T16:09:09;54.35;;;31.17;;
84780;SDS011;75011;50.086;19.886;2024-02-28T16:12:10;58.75;;;33.25;;
84780;SDS011;75011;50.086;19.886;2024-02-28T16:15:12;63.38;;;34.15;;
84780;SDS011;75011;50.086;19.886;2024-02-28T16:18:12;71.78;;;38.17;;
84780;SDS011;75011;50.086;19.886;2024-02-28T16:21:13;75.72;;;40.67;;
84780;SDS011;75011;50.086;19.886;2024-02-28T16:24:13;73.05;;;41.10;;
84780;SDS011;75011;50.086;19.886;2024-02-28T16:27:14;85.35;;;47.00;;
84780;SDS011;75011;50.086;19.886;2024-02-28T16:30:16;90.60;;;45.47;;
84780;SDS011;75011;50.086;19.886;2024-02-28T16:33:16;98.60;;;46.22;;
84780;SDS011;75011;50.086;19.886;2024-02-28T16:36:17;101.25;;;46.35;;
84780;SDS011;75011;50.086;19.886;2024-02-28T16:39:17;99.47;;;47.63;;
84780;SDS011;75011;50.086;19.886;2024-02-28T16:42:20;103.78;;;48.33;;
84780;SDS011;75011;50.086;19.886;2024-02-28T16:45:22;98.10;;;46.97;;
84780;SDS011;75011;50.086;19.886;2024-02-28T16:48:23;95.20;;;46.10;;
84780;SDS011;75011;50.086;19.886;2024-02-28T16:51:23;104.82;;;51.83;;
84780;SDS011;75011;50.086;19.886;2024-02-28T16:54:24;102.28;;;48.35;;
84780;SDS011;75011;50.086;19.886;2024-02-28T16:57:24;99.88;;;48.70;;
84780;SDS011;75011;50.086;19.886;2024-02-28T17:00:26;108.72;;;46.38;;
84780;SDS011;75011;50.086;19.886;2024-02-28T17:03:26;109.20;;;47.22;;
84780;SDS011;75011;50.086;19.886;2024-02-28T17:06:27;115.55;;;49.33;;
84780;SDS011;75011;50.086;19.886;2024-02-28T17:09:27;115.78;;;50.67;;
84780;SDS011;75011;50.086;19.886;2024-02-28T17:12:28;116.85;;;48.40;;
84780;SDS011;75011;50.086;19.886;2024-02-28T17:15:30;113.22;;;49.15;;
84780;SDS011;75011;50.086;19.886;2024-02-28T17:18:30;125.10;;;51.83;;
84780;SDS011;75011;50.086;19.886;2024-02-28T17:21:31;113.38;;;48.42;;